Houlton, Wisconsin
Current Conditions -  °F | °C
As of 12:31 AM on Monday 26 Jan 2015 (Local Time) from K21D Reporting Station
Scattered Clouds Scattered Clouds  
Wind Chill: 13°   Ceiling: Unl
Heat Index: 21°   Visibility: 10mi
Dew Point: 19°   Wind: 7mph
Humidity: 93%   Direction: 180°S
Pressure: 29.96"   Gusts: NA
Location:  45.067°N, 92.7557°W
Report Text: K21D 260631Z AUTO 18006KT 10SM SCT120 M06/M07 A2996 RMK AO2
Loading
Personal Weather Stations






























Interactive Weather Map New forecast layout! Learn more

10-Day Weather Forecast

Advertisements
Track Severe Weather on mobile